首页
METAR-TAF:

METAR-TAF

机场 :

庞卡城, 奧克拉荷馬州, 美国

纬度: 36-43-50N, 经度: 097-05-59W, 海拔: 307米

当前天气观测

该预报发布于1小时和19分钟前的02:53 UTC
风速13节,风向南转南东
温度 29°C
湿度 58%
气压 1009 hPa
能見度: 16.1公里
少量云层高于11000英尺

METAR: KPNC 170253Z AUTO 16013KT 10SM FEW110 29/20 A2980 RMK AO2 SLP076 T02940200 52017 PWINO $

时间: 23:12 (04:12 UTC)

预报

该预报发布于4小时和52分钟前的23:20 UTC
预报有效从17日的 00点(UTC)到 17日的 24点(UTC)
风速15节,风向
能見度: 10公里
天空无云
从 17日的 0800点(UTC)
风速12节,风向南转南东
能見度: 10公里
天空无云
从 17日的 1300点(UTC)
风速15节,风向,有时为24节阵风
能見度: 10公里
散云层高于5000英尺

TAF: KPNC 162320Z 1700/1724 17015KT P6SM SKC FM170800 16012KT P6SM SKC WS020/19040KT FM171300 17015G24KT P6SM SCT050

超过4000个机场的气象观测和天气预报(METAR&TAF报告)。

可查询的气象台以黄色和红色小点在地图上表示。

将鼠标移到小点上方,可查看气象台名称。

然后点击查看天气观测和预报。

如需切换地图:点击带黑十字的绿色按钮放大地图;点击带横线的绿色按钮缩小地图;或者点击绿色箭头查看邻近地区的地图。


METAR-TAF: